Time;durP1;ratioP1;P1;durP2;ratioP2;P2;SDS_P1;SDS_P2;PMS_P1;PMS_P2;Temp;Humidity;BMP_temperature;BMP_pressure;BME280_temperature;BME280_humidity;BME280_pressure;Samples;Min_cycle;Max_cycle;Signal;HPM_P1;HPM_P2
2023/03/14 00:00:18;;;;;;;3.20;3.10;;;;;;;8.77;100.00;95185.31;5073525;28;20169;-59
2023/03/14 00:02:43;;;;;;;4.70;4.50;;;;;;;8.68;100.00;95145.84;5073673;28;20231;-59
2023/03/14 00:05:16;;;;;;;3.27;3.17;;;;;;;8.59;100.00;95126.44;5077123;28;20600;-59
2023/03/14 00:07:42;;;;;;;4.53;4.33;;;;;;;8.59;100.00;95136.09;5073282;28;20204;-57
2023/03/14 00:10:12;;;;;;;3.43;3.13;;;;;;;8.63;100.00;95130.16;5073565;28;20208;-60
2023/03/14 00:12:37;;;;;;;3.63;3.43;;;;;;;8.59;100.00;95143.94;5071936;28;20715;-59
2023/03/14 00:15:06;;;;;;;5.20;4.80;;;;;;;8.61;100.00;95139.25;5073721;28;20209;-59
2023/03/14 00:17:33;;;;;;;4.27;4.07;;;;;;;8.59;100.00;95123.84;5073995;28;20271;-60
2023/03/14 00:20:07;;;;;;;3.37;3.17;;;;;;;8.59;100.00;95121.22;5072643;28;20193;-60
2023/03/14 00:22:34;;;;;;;3.30;3.10;;;;;;;8.66;100.00;95134.84;5073087;28;20196;-58
2023/03/14 00:25:00;;;;;;;3.73;3.53;;;;;;;8.71;100.00;95131.47;5073118;28;20231;-59
2023/03/14 00:27:25;;;;;;;4.40;4.20;;;;;;;8.71;100.00;95105.34;5069859;28;20267;-59
2023/03/14 00:29:51;;;;;;;4.07;3.87;;;;;;;8.70;100.00;95112.41;5093221;28;20212;-59
2023/03/14 00:32:16;;;;;;;4.77;4.47;;;;;;;8.69;100.00;95102.22;5093662;28;20238;-60
2023/03/14 00:34:41;;;;;;;4.43;4.23;;;;;;;8.72;100.00;95109.53;5092711;28;20199;-60
2023/03/14 00:37:07;;;;;;;4.23;3.93;;;;;;;8.73;100.00;95109.28;5093053;28;20179;-60
2023/03/14 00:39:32;;;;;;;3.47;3.27;;;;;;;8.76;100.00;95119.22;5092643;28;20222;-60
2023/03/14 00:41:58;;;;;;;4.23;4.03;;;;;;;8.85;100.00;95122.13;5092969;28;20230;-60
2023/03/14 00:44:23;;;;;;;3.77;3.53;;;;;;;8.82;100.00;95127.84;5092850;28;20173;-60
2023/03/14 00:46:49;;;;;;;4.00;3.70;;;;;;;8.91;100.00;95118.50;5093033;28;20187;-60
2023/03/14 00:49:14;;;;;;;3.90;3.70;;;;;;;8.87;100.00;95120.03;5092861;28;20206;-59
2023/03/14 00:51:39;;;;;;;3.23;3.13;;;;;;;8.91;100.00;95113.28;5092625;28;20208;-60
2023/03/14 00:54:05;;;;;;;4.87;4.67;;;;;;;8.84;100.00;95114.53;5092770;28;20208;-60
2023/03/14 00:56:31;;;;;;;4.70;4.50;;;;;;;8.87;100.00;95121.84;5092764;28;20183;-60
2023/03/14 00:58:56;;;;;;;4.73;4.43;;;;;;;8.87;100.00;95125.25;5092712;28;20288;-60
2023/03/14 01:01:22;;;;;;;5.00;4.70;;;;;;;8.89;100.00;95127.63;5092792;28;20171;-60
2023/03/14 01:03:52;;;;;;;5.77;5.23;;;;;;;8.91;100.00;95128.94;5091762;28;20310;-60
2023/03/14 01:06:20;;;;;;;4.37;4.17;;;;;;;8.85;100.00;95145.66;5092915;28;20177;-60
2023/03/14 01:08:46;;;;;;;3.50;3.40;;;;;;;8.93;100.00;95136.50;5092400;28;20215;-60
2023/03/14 01:11:16;;;;;;;3.10;2.90;;;;;;;8.84;100.00;95149.28;5090465;28;20200;-58
2023/03/14 01:13:42;;;;;;;3.17;3.07;;;;;;;8.90;100.00;95137.81;5092337;28;20208;-59
2023/03/14 01:16:09;;;;;;;3.33;3.23;;;;;;;8.91;100.00;95131.56;5092352;28;20714;-60
2023/03/14 01:18:36;;;;;;;3.60;3.50;;;;;;;8.90;100.00;95129.97;5092253;28;20281;-58
2023/03/14 01:21:04;;;;;;;2.47;2.47;;;;;;;8.86;100.00;95123.69;5083987;28;20168;-60
2023/03/14 01:23:30;;;;;;;2.30;2.30;;;;;;;8.91;100.00;95125.53;5092385;28;20330;-60
2023/03/14 01:25:55;;;;;;;3.03;2.90;;;;;;;8.90;100.00;95119.53;5085171;28;20236;-60
2023/03/14 01:28:20;;;;;;;2.60;2.50;;;;;;;8.90;100.00;95101.25;5072244;28;20209;-60
2023/03/14 01:30:46;;;;;;;2.77;2.67;;;;;;;8.93;100.00;95095.50;5072000;28;20634;-60
2023/03/14 01:33:12;;;;;;;3.00;2.90;;;;;;;8.92;100.00;95085.28;5072240;28;20545;-59
2023/03/14 01:35:38;;;;;;;2.90;2.80;;;;;;;8.91;100.00;95099.41;5073544;28;20201;-60
2023/03/14 01:38:03;;;;;;;3.07;2.90;;;;;;;8.90;100.00;95082.97;5075642;28;20673;-60
2023/03/14 01:40:29;;;;;;;2.70;2.60;;;;;;;8.95;100.00;95084.78;5072061;28;20268;-59
2023/03/14 01:43:13;;;;;;;2.87;2.77;;;;;;;8.82;100.00;95075.59;5071853;28;20209;-58
2023/03/14 01:46:06;;;;;;;2.60;2.50;;;;;;;8.84;100.00;95067.53;5072341;28;20223;-59
2023/03/14 01:48:44;;;;;;;2.43;2.33;;;;;;;8.85;100.00;95056.03;5075768;28;20193;-58
2023/03/14 01:51:13;;;;;;;2.73;2.63;;;;;;;8.80;100.00;95048.97;5076321;28;20283;-61
2023/03/14 01:53:41;;;;;;;3.00;2.90;;;;;;;8.81;100.00;95053.13;5076323;28;20537;-57
2023/03/14 01:56:09;;;;;;;2.87;2.77;;;;;;;8.79;100.00;95051.84;5075626;28;20185;-60
2023/03/14 01:58:37;;;;;;;2.97;2.80;;;;;;;8.84;100.00;95044.00;5075819;28;20261;-61
2023/03/14 02:01:03;;;;;;;3.03;2.90;;;;;;;8.78;100.00;95040.59;5075726;28;20181;-60
2023/03/14 02:03:34;;;;;;;2.70;2.60;;;;;;;8.78;100.00;95045.81;5074581;28;20189;-60
2023/03/14 02:06:06;;;;;;;2.77;2.67;;;;;;;8.72;100.00;95031.97;5076113;28;20243;-60
2023/03/14 02:08:33;;;;;;;2.37;2.27;;;;;;;8.72;100.00;95033.78;5075851;28;20201;-60
2023/03/14 02:10:58;;;;;;;3.07;2.87;;;;;;;8.71;100.00;95035.63;5073994;28;20215;-60
2023/03/14 02:13:24;;;;;;;2.80;2.70;;;;;;;8.73;100.00;95043.19;5075966;28;20264;-60
2023/03/14 02:15:50;;;;;;;2.70;2.60;;;;;;;8.66;100.00;95037.44;5075851;28;20181;-59
2023/03/14 02:18:16;;;;;;;2.53;2.43;;;;;;;8.62;100.00;95036.38;5075741;28;20308;-59
2023/03/14 02:20:51;;;;;;;3.00;2.90;;;;;;;8.58;100.00;95033.47;5075348;28;20189;-59
2023/03/14 02:23:32;;;;;;;2.63;2.53;;;;;;;8.60;100.00;95036.63;5075799;28;20652;-56
2023/03/14 02:26:04;;;;;;;2.60;2.40;;;;;;;8.58;100.00;95032.72;5075479;28;20231;-60
2023/03/14 02:28:29;;;;;;;3.33;2.67;;;;;;;8.60;100.00;95025.41;5095841;28;20228;-59
2023/03/14 02:30:55;;;;;;;3.50;3.30;;;;;;;8.57;100.00;95016.28;5095898;28;20243;-60
2023/03/14 02:33:22;;;;;;;2.30;2.30;;;;;;;8.62;100.00;95008.44;5095980;28;20169;-61
2023/03/14 02:35:53;;;;;;;2.90;2.80;;;;;;;8.61;100.00;95006.88;5077630;28;20231;-60
2023/03/14 02:38:28;;;;;;;2.80;2.70;;;;;;;8.57;100.00;94998.00;5095975;28;20199;-60
2023/03/14 02:40:54;;;;;;;3.03;2.93;;;;;;;8.60;100.00;95004.50;5095614;28;20164;-60
2023/03/14 02:43:19;;;;;;;2.50;2.40;;;;;;;8.60;100.00;95007.91;5095728;28;20234;-60
2023/03/14 02:45:46;;;;;;;2.53;2.43;;;;;;;8.63;100.00;95002.19;5095930;28;20200;-60
2023/03/14 02:48:21;;;;;;;2.77;2.67;;;;;;;8.61;100.00;94988.59;5095696;28;20196;-61
2023/03/14 02:50:50;;;;;;;2.30;2.30;;;;;;;8.65;100.00;94986.25;5095471;28;20187;-60
2023/03/14 02:53:19;;;;;;;2.53;2.53;;;;;;;8.64;100.00;94982.06;5095380;28;20199;-61
2023/03/14 02:55:46;;;;;;;2.80;2.70;;;;;;;8.62;100.00;94971.09;5095472;28;20559;-60
2023/03/14 02:58:12;;;;;;;3.33;3.23;;;;;;;8.54;100.00;94969.75;5095178;28;20205;-59
2023/03/14 03:00:37;;;;;;;3.10;3.00;;;;;;;8.60;100.00;94973.16;5095500;28;20172;-58
2023/03/14 03:03:02;;;;;;;3.10;3.00;;;;;;;8.60;100.00;94963.50;5094557;28;20193;-61
2023/03/14 03:05:28;;;;;;;2.57;2.50;;;;;;;8.64;100.00;94959.34;5095309;28;20192;-62
2023/03/14 03:07:53;;;;;;;3.03;2.93;;;;;;;8.55;100.00;94950.44;5094877;28;20216;-61
2023/03/14 03:10:19;;;;;;;3.17;2.87;;;;;;;8.50;100.00;94958.28;5093001;28;20188;-60
2023/03/14 03:12:44;;;;;;;2.47;2.37;;;;;;;8.46;100.00;94959.06;5095164;28;20220;-59
2023/03/14 03:15:10;;;;;;;2.67;2.57;;;;;;;8.46;100.00;94949.41;5095053;28;20168;-59
2023/03/14 03:17:35;;;;;;;2.70;2.60;;;;;;;8.47;100.00;94937.88;5094643;28;20688;-60
2023/03/14 03:20:01;;;;;;;2.70;2.60;;;;;;;8.47;100.00;94927.44;5094625;28;20195;-60
2023/03/14 03:22:26;;;;;;;3.17;3.07;;;;;;;8.38;100.00;94915.97;5094686;28;20176;-60
2023/03/14 03:24:51;;;;;;;2.70;2.60;;;;;;;8.42;100.00;94922.22;5094698;28;20181;-60
2023/03/14 03:27:17;;;;;;;5.87;3.57;;;;;;;8.46;100.00;94918.06;5076382;28;20233;-60
2023/03/14 03:29:42;;;;;;;3.33;3.23;;;;;;;8.41;100.00;94917.28;5073195;28;20201;-60
2023/03/14 03:32:08;;;;;;;3.83;3.37;;;;;;;8.35;100.00;94924.31;5074437;28;20268;-60
2023/03/14 03:34:33;;;;;;;5.80;5.47;;;;;;;8.40;100.00;94915.72;5073182;28;20162;-60
2023/03/14 03:36:58;;;;;;;4.13;4.00;;;;;;;8.37;100.00;94903.16;5075431;28;20158;-60
2023/03/14 03:39:24;;;;;;;3.20;3.10;;;;;;;8.39;100.00;94901.88;5074508;28;20208;-58
2023/03/14 03:41:49;;;;;;;4.93;4.73;;;;;;;8.34;100.00;94894.81;5074285;28;20613;-58
2023/03/14 03:44:15;;;;;;;3.80;3.53;;;;;;;8.33;100.00;94897.69;5074455;28;20219;-58
2023/03/14 03:46:40;;;;;;;5.70;5.40;;;;;;;8.30;100.00;94896.34;5074266;28;20173;-59
2023/03/14 03:49:05;;;;;;;3.27;3.10;;;;;;;8.30;100.00;94900.81;5074167;28;20209;-56
2023/03/14 03:51:31;;;;;;;3.40;3.20;;;;;;;8.31;100.00;94903.16;5074076;28;20212;-58
2023/03/14 03:53:57;;;;;;;2.93;2.73;;;;;;;8.31;100.00;94892.72;5073898;28;20656;-60
2023/03/14 03:56:22;;;;;;;2.83;2.70;;;;;;;8.29;100.00;94886.16;5072772;28;20181;-60
2023/03/14 03:58:47;;;;;;;3.17;2.93;;;;;;;8.25;100.00;94896.31;5073984;28;20250;-60
2023/03/14 04:01:13;;;;;;;3.30;3.07;;;;;;;8.29;100.00;94900.00;5073986;28;20169;-59
2023/03/14 04:03:38;;;;;;;3.23;3.10;;;;;;;8.27;100.00;94891.63;5072995;28;20185;-59
2023/03/14 04:06:12;;;;;;;4.90;4.60;;;;;;;8.25;100.00;94879.88;5073613;28;20170;-60
2023/03/14 04:08:38;;;;;;;3.43;3.13;;;;;;;8.20;100.00;94890.31;5071934;28;20193;-60
2023/03/14 04:11:04;;;;;;;6.17;5.87;;;;;;;8.13;100.00;94887.19;5072842;28;20236;-59
2023/03/14 04:13:29;;;;;;;6.37;5.87;;;;;;;8.12;100.00;94888.22;5073610;28;20185;-60
2023/03/14 04:15:55;;;;;;;6.23;5.60;;;;;;;8.14;100.00;94880.91;5073563;28;20188;-59
2023/03/14 04:18:24;;;;;;;7.13;6.63;;;;;;;8.05;100.00;94885.84;5073415;28;20228;-60
2023/03/14 04:20:57;;;;;;;6.03;5.50;;;;;;;8.10;100.00;94883.25;5072902;28;20630;-59
2023/03/14 04:23:24;;;;;;;5.63;5.10;;;;;;;8.10;100.00;94885.06;5073319;28;20193;-59
2023/03/14 04:25:50;;;;;;;5.23;4.80;;;;;;;8.08;100.00;94884.56;5071153;28;20229;-59
2023/03/14 04:28:16;;;;;;;4.70;4.40;;;;;;;8.12;100.00;94881.19;5073546;28;20206;-60
2023/03/14 04:30:41;;;;;;;4.83;3.90;;;;;;;8.06;100.00;94882.19;5073262;28;20196;-60
2023/03/14 04:33:07;;;;;;;6.43;3.80;;;;;;;8.08;100.00;94882.72;5073234;28;20547;-60
2023/03/14 04:35:33;;;;;;;3.70;3.40;;;;;;;8.11;100.00;94884.81;5073416;28;20166;-60
2023/03/14 04:37:59;;;;;;;5.63;4.47;;;;;;;8.07;100.00;94885.59;5073053;28;20208;-56
2023/03/14 04:40:25;;;;;;;4.63;4.33;;;;;;;8.10;100.00;94885.06;5073214;28;20157;-60
2023/03/14 04:42:50;;;;;;;4.40;4.07;;;;;;;8.03;100.00;94871.47;5073317;28;20264;-57
2023/03/14 04:45:16;;;;;;;5.70;5.20;;;;;;;8.10;100.00;94872.03;5073056;28;20248;-58
2023/03/14 04:47:41;;;;;;;6.23;4.47;;;;;;;8.07;100.00;94867.34;5073107;28;20219;-60
2023/03/14 04:50:08;;;;;;;5.77;5.23;;;;;;;8.08;100.00;94854.00;5072826;28;20161;-60
2023/03/14 04:52:33;;;;;;;4.20;3.90;;;;;;;7.98;100.00;94850.59;5072765;28;20201;-60
2023/03/14 04:54:59;;;;;;;5.23;4.73;;;;;;;8.07;100.00;94855.06;5071733;28;20318;-60
2023/03/14 04:57:24;;;;;;;3.77;3.57;;;;;;;8.10;100.00;94859.75;5072862;28;20213;-60
2023/03/14 04:59:50;;;;;;;4.70;4.00;;;;;;;7.97;100.00;94856.88;5072772;28;20204;-59
2023/03/14 05:02:15;;;;;;;4.90;4.03;;;;;;;8.00;100.00;94858.97;5071820;28;20185;-59
2023/03/14 05:04:40;;;;;;;3.90;3.60;;;;;;;7.95;100.00;94851.91;5072606;28;20174;-60
2023/03/14 05:07:06;;;;;;;4.20;4.00;;;;;;;7.92;100.00;94850.59;5072386;28;20177;-60
2023/03/14 05:09:31;;;;;;;4.07;3.70;;;;;;;7.96;100.00;94845.66;5070664;28;20225;-60
2023/03/14 05:11:56;;;;;;;3.93;3.53;;;;;;;7.87;100.00;94842.75;5072887;28;20539;-60
2023/03/14 05:14:22;;;;;;;4.70;3.70;;;;;;;7.91;100.00;94846.41;5072625;28;20644;-59
2023/03/14 05:16:47;;;;;;;3.10;2.90;;;;;;;7.93;100.00;94843.56;5072417;28;20267;-56
2023/03/14 05:19:13;;;;;;;5.10;3.17;;;;;;;7.91;100.00;94843.81;5072255;28;20204;-60
2023/03/14 05:21:38;;;;;;;3.40;3.20;;;;;;;7.97;100.00;94841.22;5071220;28;20172;-59
2023/03/14 05:24:04;;;;;;;5.43;3.37;;;;;;;7.98;100.00;94838.34;5072511;28;20188;-58
2023/03/14 05:26:29;;;;;;;4.90;4.60;;;;;;;7.97;100.00;94836.78;5070302;28;20382;-60
2023/03/14 05:28:54;;;;;;;5.73;5.10;;;;;;;8.02;100.00;94843.84;5072395;28;20212;-59
2023/03/14 05:31:20;;;;;;;6.40;5.00;;;;;;;8.06;100.00;94839.66;5072410;28;20274;-60
2023/03/14 05:33:46;;;;;;;4.07;3.87;;;;;;;8.01;100.00;94837.84;5072464;28;20169;-60
2023/03/14 05:36:11;;;;;;;4.93;4.63;;;;;;;7.99;100.00;94842.53;5072419;28;20172;-59
2023/03/14 05:38:37;;;;;;;5.37;4.93;;;;;;;8.07;100.00;94838.63;5072309;28;20629;-59
2023/03/14 05:41:03;;;;;;;4.03;3.70;;;;;;;8.09;100.00;94834.72;5072244;28;20629;-58
2023/03/14 05:43:28;;;;;;;3.90;3.60;;;;;;;8.16;100.00;94831.84;5072702;28;20169;-60
2023/03/14 05:45:54;;;;;;;4.73;4.43;;;;;;;8.26;100.00;94826.63;5071063;28;20188;-60
2023/03/14 05:48:19;;;;;;;5.90;5.13;;;;;;;8.31;100.00;94826.66;5071192;28;20279;-59
2023/03/14 05:50:45;;;;;;;7.20;6.73;;;;;;;8.27;100.00;94817.78;5071493;28;20234;-53
2023/03/14 05:53:10;;;;;;;5.57;5.27;;;;;;;8.26;100.00;94824.81;5070907;28;20177;-60
2023/03/14 05:55:35;;;;;;;5.97;5.57;;;;;;;8.24;100.00;94810.47;5071994;28;20197;-60
2023/03/14 05:58:01;;;;;;;5.03;4.73;;;;;;;8.20;100.00;94804.97;5072110;28;20201;-61
2023/03/14 06:00:26;;;;;;;5.90;4.63;;;;;;;8.25;100.00;94804.97;5072079;28;20252;-59
2023/03/14 06:02:52;;;;;;;5.57;5.17;;;;;;;8.23;100.00;94814.91;5070135;28;20180;-60
2023/03/14 06:05:17;;;;;;;5.97;4.67;;;;;;;8.31;100.00;94813.63;5072372;28;20162;-61
2023/03/14 06:07:43;;;;;;;5.03;4.63;;;;;;;8.36;100.00;94815.47;5069717;28;20588;-62
2023/03/14 06:10:09;;;;;;;5.53;4.07;;;;;;;8.22;100.00;94815.16;5072134;28;20525;-62
2023/03/14 06:12:34;;;;;;;4.90;4.53;;;;;;;8.25;100.00;94820.63;5072081;28;20624;-60
2023/03/14 06:14:59;;;;;;;4.80;4.50;;;;;;;8.27;100.00;94828.22;5072531;28;20260;-61
2023/03/14 06:17:25;;;;;;;5.07;4.03;;;;;;;8.19;100.00;94811.22;5072102;28;20173;-59
2023/03/14 06:19:50;;;;;;;3.50;3.10;;;;;;;8.26;100.00;94805.75;5071798;28;20210;-60
2023/03/14 06:22:16;;;;;;;3.00;2.90;;;;;;;8.29;100.00;94807.88;5071981;28;20660;-62
2023/03/14 06:24:41;;;;;;;3.73;3.23;;;;;;;8.27;100.00;94825.59;5071942;28;20178;-63
2023/03/14 06:27:07;;;;;;;3.30;3.00;;;;;;;8.33;100.00;94812.34;5069828;28;20257;-62
2023/03/14 06:29:32;;;;;;;3.67;3.37;;;;;;;8.38;100.00;94815.97;5072042;28;20707;-62
2023/03/14 06:31:57;;;;;;;3.90;3.57;;;;;;;8.32;100.00;94815.19;5071755;28;20189;-62
2023/03/14 06:34:23;;;;;;;6.63;3.40;;;;;;;8.26;100.00;94830.03;5074832;28;20215;-61
2023/03/14 06:36:48;;;;;;;4.07;3.70;;;;;;;8.32;100.00;94817.81;5075486;28;20166;-59
2023/03/14 06:39:14;;;;;;;4.20;3.30;;;;;;;8.30;100.00;94825.88;5075282;28;20246;-60
2023/03/14 06:41:39;;;;;;;3.80;3.40;;;;;;;8.34;100.00;94813.13;5075594;28;20193;-61
2023/03/14 06:44:05;;;;;;;3.10;3.00;;;;;;;8.38;100.00;94811.53;5075440;28;20637;-60
2023/03/14 06:46:30;;;;;;;2.90;2.70;;;;;;;8.44;100.00;94818.34;5075307;28;20165;-61
2023/03/14 06:48:56;;;;;;;3.40;3.10;;;;;;;8.48;100.00;94814.16;5074077;28;20201;-62
2023/03/14 06:51:22;;;;;;;3.20;2.70;;;;;;;8.59;100.00;94807.09;5075461;28;20204;-60
2023/03/14 06:53:47;;;;;;;4.27;3.40;;;;;;;8.63;100.00;94811.56;5075115;28;20166;-61
2023/03/14 06:56:12;;;;;;;3.57;3.37;;;;;;;8.57;100.00;94807.38;5075110;28;20177;-60
2023/03/14 06:58:38;;;;;;;4.07;3.77;;;;;;;8.69;100.00;94810.47;5075129;28;20247;-60
2023/03/14 07:01:03;;;;;;;4.10;3.90;;;;;;;8.77;100.00;94820.41;5074407;28;20287;-61
2023/03/14 07:03:29;;;;;;;6.73;4.50;;;;;;;9.11;100.00;94820.63;5075076;28;20217;-61
2023/03/14 07:05:54;;;;;;;3.83;3.63;;;;;;;9.27;100.00;94821.34;5074872;28;20555;-61
2023/03/14 07:08:20;;;;;;;10.63;4.80;;;;;;;9.23;100.00;94814.31;5072775;28;20233;-61
2023/03/14 07:10:46;;;;;;;4.43;4.17;;;;;;;9.06;100.00;94814.63;5074613;28;20173;-59
2023/03/14 07:13:11;;;;;;;3.53;3.33;;;;;;;9.14;100.00;94827.13;5074969;28;20185;-61
2023/03/14 07:15:36;;;;;;;3.90;3.50;;;;;;;9.08;100.00;94817.75;5074846;28;20166;-64
2023/03/14 07:18:02;;;;;;;3.67;3.37;;;;;;;9.39;100.00;94824.44;5074668;28;20262;-55
2023/03/14 07:20:29;;;;;;;3.17;2.97;;;;;;;9.60;100.00;94830.38;5074448;28;20203;-58
2023/03/14 07:22:54;;;;;;;5.33;5.03;;;;;;;9.41;100.00;94830.19;5074488;28;20514;-58
2023/03/14 07:27:47;;;;;;;2.90;2.80;;;;;;;9.81;100.00;94826.63;5072455;28;20307;-58
2023/03/14 07:30:13;;;;;;;4.27;3.97;;;;;;;10.18;100.00;94825.41;5074851;28;20648;-57
2023/03/14 07:32:39;;;;;;;3.50;3.30;;;;;;;10.36;100.00;94822.16;5074492;28;20280;-58
2023/03/14 07:35:05;;;;;;;5.60;4.07;;;;;;;10.48;100.00;94817.31;5074409;28;20253;-56
2023/03/14 07:37:30;;;;;;;4.10;3.87;;;;;;;10.35;100.00;94836.28;5074117;28;20181;-57
2023/03/14 07:39:56;;;;;;;3.30;3.10;;;;;;;11.20;100.00;94832.13;5074485;28;20222;-63
2023/03/14 07:42:21;;;;;;;4.20;3.90;;;;;;;11.32;100.00;94831.75;5074456;28;20249;-68
2023/03/14 07:44:47;;;;;;;3.87;3.67;;;;;;;11.23;97.04;94842.06;5073337;28;20618;-62
2023/03/14 07:47:12;;;;;;;8.47;8.10;;;;;;;11.20;97.36;94826.13;5074292;28;20617;-62
2023/03/14 07:49:37;;;;;;;9.13;8.63;;;;;;;10.95;95.80;94829.78;5074065;28;20236;-61
2023/03/14 07:52:03;;;;;;;5.00;4.53;;;;;;;11.17;96.06;94842.41;5074055;28;20189;-63
2023/03/14 07:54:28;;;;;;;3.00;2.90;;;;;;;11.13;94.99;94829.06;5074117;28;20166;-62
2023/03/14 07:56:54;;;;;;;3.57;3.37;;;;;;;11.25;92.50;94834.72;5074080;28;20708;-62
2023/03/14 07:59:20;;;;;;;3.13;3.03;;;;;;;11.18;91.46;94830.84;5074035;28;20201;-62
2023/03/14 08:01:46;;;;;;;4.63;4.43;;;;;;;11.11;91.13;94831.19;5074123;28;20181;-62
2023/03/14 08:04:11;;;;;;;3.70;3.40;;;;;;;10.88;92.10;94834.53;5076090;28;20211;-62
2023/03/14 08:06:37;;;;;;;4.30;3.90;;;;;;;10.76;91.98;94836.75;5073407;28;20158;-60
2023/03/14 08:09:04;;;;;;;3.90;3.70;;;;;;;10.91;91.25;94826.16;5072262;28;20675;-62
2023/03/14 08:11:29;;;;;;;5.80;5.30;;;;;;;11.08;89.88;94836.22;5074528;28;20184;-62
2023/03/14 08:13:55;;;;;;;5.30;5.10;;;;;;;11.04;89.41;94832.56;5075918;28;20652;-60
2023/03/14 08:16:21;;;;;;;4.70;4.40;;;;;;;11.04;89.88;94824.69;5074198;28;20264;-62
2023/03/14 08:18:46;;;;;;;4.87;4.47;;;;;;;10.96;90.32;94822.69;5072238;28;20721;-62
2023/03/14 08:21:13;;;;;;;4.17;3.87;;;;;;;11.03;90.05;94834.41;5073069;28;20244;-61
2023/03/14 08:23:38;;;;;;;5.80;5.47;;;;;;;11.06;89.55;94841.72;5073104;28;20177;-61
2023/03/14 08:26:04;;;;;;;7.90;7.50;;;;;;;10.89;89.94;94827.47;5071132;28;20694;-61
2023/03/14 08:28:32;;;;;;;6.20;5.57;;;;;;;10.86;89.87;94828.03;5073269;28;20193;-62
2023/03/14 08:30:57;;;;;;;4.83;4.57;;;;;;;10.93;89.64;94825.84;5073233;28;20703;-61
2023/03/14 08:33:24;;;;;;;4.30;4.10;;;;;;;10.93;89.52;94833.72;5073340;28;20153;-62
2023/03/14 08:35:52;;;;;;;5.43;5.10;;;;;;;11.05;89.02;94826.25;5073244;28;20162;-61
2023/03/14 08:38:18;;;;;;;4.30;4.00;;;;;;;10.96;88.92;94826.09;5073067;28;20193;-62
2023/03/14 08:40:43;;;;;;;4.53;4.33;;;;;;;11.46;87.16;94818.75;5073099;28;20255;-61
2023/03/14 08:43:09;;;;;;;6.50;6.10;;;;;;;11.82;84.37;94822.53;5072918;28;20618;-62
2023/03/14 08:45:34;;;;;;;22.47;21.30;;;;;;;11.97;80.62;94798.72;5071546;28;20218;-61
2023/03/14 08:48:00;;;;;;;27.80;26.40;;;;;;;11.97;77.74;94822.34;5072689;28;20200;-60
2023/03/14 08:50:25;;;;;;;16.63;15.87;;;;;;;11.82;79.11;94821.75;5072389;28;20157;-60
2023/03/14 08:52:51;;;;;;;11.33;10.83;;;;;;;11.80;79.56;94816.00;5072838;28;20185;-60
2023/03/14 08:55:17;;;;;;;6.20;5.70;;;;;;;11.80;78.94;94819.44;5074939;28;20153;-61
2023/03/14 08:57:42;;;;;;;7.10;6.70;;;;;;;11.97;79.15;94821.56;5070970;28;20177;-61
2023/03/14 09:00:14;;;;;;;9.00;8.60;;;;;;;11.98;78.78;94816.00;5073023;28;20165;-61
2023/03/14 09:02:39;;;;;;;11.53;6.10;;;;;;;12.11;79.84;94832.91;5072649;28;20219;-61
2023/03/14 09:05:05;;;;;;;5.23;4.97;;;;;;;11.89;79.07;94838.72;5072627;28;20555;-61
2023/03/14 09:07:31;;;;;;;4.50;4.30;;;;;;;12.04;79.16;94861.38;5070892;28;20188;-61
2023/03/14 09:09:56;;;;;;;4.30;4.13;;;;;;;12.33;80.04;94851.50;5072821;28;20507;-61
2023/03/14 09:12:22;;;;;;;6.70;6.40;;;;;;;12.31;81.28;94864.16;5071341;28;20247;-60
2023/03/14 09:14:47;;;;;;;9.50;9.10;;;;;;;12.03;82.80;94865.88;5073126;28;20177;-60
2023/03/14 09:17:12;;;;;;;25.77;24.43;;;;;;;11.50;86.36;94865.13;5073737;28;20719;-60
2023/03/14 09:19:38;;;;;;;15.93;15.20;;;;;;;11.51;87.57;94860.66;5072649;28;20201;-60
2023/03/14 09:22:03;;;;;;;10.77;10.17;;;;;;;11.51;88.84;94871.94;5072240;28;20192;-60
2023/03/14 09:24:29;;;;;;;13.30;12.63;;;;;;;11.43;90.54;94867.31;5071152;28;20173;-60
2023/03/14 09:26:56;;;;;;;9.27;8.87;;;;;;;11.37;90.74;94870.28;5070150;28;20286;-59
2023/03/14 09:29:21;;;;;;;2.70;2.60;;;;;;;11.33;92.54;94877.13;5072545;28;20215;-60
2023/03/14 09:31:47;;;;;;;3.53;3.33;;;;;;;11.62;90.88;94885.75;5072379;28;20193;-58
2023/03/14 09:34:12;;;;;;;8.67;8.13;;;;;;;11.82;89.16;94884.75;5072599;28;20165;-60
2023/03/14 09:36:39;;;;;;;14.00;13.20;;;;;;;12.08;87.94;94888.63;5072833;28;20574;-61
2023/03/14 09:39:05;;;;;;;18.60;17.70;;;;;;;12.13;85.60;94887.78;5072585;28;20197;-60
2023/03/14 09:41:38;;;;;;;26.77;25.40;;;;;;;11.99;83.75;94909.47;5072393;28;20499;-57
2023/03/14 09:44:09;;;;;;;32.93;31.23;;;;;;;12.13;83.69;94880.69;5072871;28;20165;-59
2023/03/14 09:46:38;;;;;;;21.03;19.97;;;;;;;12.01;83.31;94898.69;5072352;28;20169;-59
2023/03/14 09:49:11;;;;;;;17.97;17.10;;;;;;;12.14;82.69;94899.88;5071156;28;20193;-60
2023/03/14 09:51:37;;;;;;;9.87;9.37;;;;;;;12.32;80.92;94915.63;5072439;28;20251;-59
2023/03/14 09:54:05;;;;;;;9.97;9.37;;;;;;;12.28;81.20;94901.50;5072209;28;20566;-60
2023/03/14 09:56:33;;;;;;;14.90;14.17;;;;;;;12.52;79.66;94904.06;5072111;28;20181;-58
2023/03/14 09:59:02;;;;;;;35.07;33.20;;;;;;;12.53;78.98;94900.38;5072064;28;20212;-60
2023/03/14 10:01:29;;;;;;;29.23;27.77;;;;;;;12.45;79.85;94906.25;5071658;28;20581;-58
2023/03/14 10:03:58;;;;;;;25.67;24.37;;;;;;;12.49;79.03;94907.25;5072136;28;20494;-60
2023/03/14 10:06:29;;;;;;;28.80;27.37;;;;;;;12.57;79.02;94900.59;5070066;28;20544;-58
2023/03/14 10:08:56;;;;;;;20.73;19.70;;;;;;;12.22;79.16;94902.63;5074750;28;20287;-59
2023/03/14 10:11:22;;;;;;;22.63;21.10;;;;;;;12.32;79.70;94902.50;5076122;28;20224;-59
2023/03/14 10:14:08;;;;;;;27.43;26.07;;;;;;;12.36;79.55;94889.59;5075705;28;20209;-58
2023/03/14 10:16:41;;;;;;;29.17;27.70;;;;;;;12.42;79.57;94893.72;5075573;28;20208;-58
2023/03/14 10:19:11;;;;;;;18.20;17.30;;;;;;;12.19;80.70;94884.03;5075490;28;20204;-60
2023/03/14 10:21:39;;;;;;;13.97;13.20;;;;;;;12.17;80.24;94884.31;5075215;28;20525;-60
2023/03/14 10:24:30;;;;;;;2.90;2.80;;;;;;;12.21;82.02;94882.66;5075496;28;20272;-59
2023/03/14 10:27:02;;;;;;;4.00;3.83;;;;;;;12.24;81.13;94869.00;5063692;28;20286;-60
2023/03/14 10:29:30;;;;;;;3.37;3.17;;;;;;;12.32;81.30;94872.81;5075461;28;20523;-58
2023/03/14 10:32:00;;;;;;;10.33;9.80;;;;;;;12.46;79.83;94873.69;5075691;28;20185;-59
2023/03/14 10:34:37;;;;;;;28.90;27.43;;;;;;;12.86;78.07;94862.56;5075640;28;20161;-60
2023/03/14 10:37:17;;;;;;;27.30;25.80;;;;;;;12.96;76.39;94874.75;5075662;28;20161;-60
2023/03/14 10:39:52;;;;;;;24.93;23.57;;;;;;;12.89;76.15;94875.09;5075280;28;20680;-60
2023/03/14 10:42:31;;;;;;;21.80;20.67;;;;;;;12.92;75.21;94876.41;5075740;28;20160;-59
2023/03/14 10:45:03;;;;;;;74.27;70.47;;;;;;;12.85;74.58;94868.88;5075534;28;20532;-60
2023/03/14 10:47:29;;;;;;;59.77;56.70;;;;;;;13.12;75.11;94880.56;5075336;28;20503;-60
2023/03/14 10:49:56;;;;;;;51.87;49.20;;;;;;;12.97;73.61;94875.53;5075056;28;20190;-61
2023/03/14 10:52:29;;;;;;;28.20;26.83;;;;;;;12.94;73.07;94882.13;5075259;28;20220;-60
2023/03/14 10:55:12;;;;;;;33.10;31.30;;;;;;;12.97;73.50;94881.56;5075463;28;20181;-60
2023/03/14 10:57:44;;;;;;;57.73;54.87;;;;;;;12.69;75.52;94896.47;5075359;28;20180;-60
2023/03/14 11:00:18;;;;;;;8.07;7.77;;;;;;;12.65;78.92;94890.19;5074520;28;20656;-59
2023/03/14 11:02:46;;;;;;;6.70;6.40;;;;;;;12.12;81.75;94892.25;5074860;28;20169;-60
2023/03/14 11:05:26;;;;;;;17.27;16.43;;;;;;;12.07;84.66;94889.69;5074354;28;20645;-59
2023/03/14 11:08:02;;;;;;;3.57;3.37;;;;;;;12.21;86.21;94895.03;5054965;28;20224;-60
2023/03/14 11:10:39;;;;;;;17.33;16.20;;;;;;;11.93;85.69;94886.97;5055369;28;20166;-60
2023/03/14 11:13:26;;;;;;;14.03;13.37;;;;;;;11.72;86.10;94901.38;5055007;28;20209;-60
2023/03/14 11:16:32;;;;;;;29.40;27.90;;;;;;;11.77;86.22;94919.72;5063155;28;20178;-60
2023/03/14 11:19:06;;;;;;;16.13;15.37;;;;;;;11.72;84.01;94896.13;5056066;28;20205;-60
2023/03/14 11:21:52;;;;;;;31.73;30.13;;;;;;;11.78;85.23;94915.25;5054448;28;20637;-61
2023/03/14 11:24:23;;;;;;;21.27;20.23;;;;;;;11.83;84.14;94923.84;5054922;28;20186;-60
2023/03/14 11:26:58;;;;;;;46.07;43.73;;;;;;;11.54;86.92;94920.44;5064864;28;20241;-60
2023/03/14 11:29:30;;;;;;;13.03;12.43;;;;;;;11.41;89.58;94926.38;5074866;28;20216;-60
2023/03/14 11:32:00;;;;;;;5.67;5.47;;;;;;;11.18;91.14;94915.56;5074396;28;20726;-60
2023/03/14 11:34:43;;;;;;;4.63;4.43;;;;;;;11.08;92.00;94907.78;5074752;28;20252;-62